Time;durP1;ratioP1;P1;durP2;ratioP2;P2;SDS_P1;SDS_P2;PMS_P1;PMS_P2;Temp;Humidity;BMP_temperature;BMP_pressure;BME280_temperature;BME280_humidity;BME280_pressure;Samples;Min_cycle;Max_cycle;Signal;HPM_P1;HPM_P2
2023/09/16 00:00:33;;;;;;;0.57;0.57;;;20.00;99.90;;;;;;7387063;19;20537;-74
2023/09/16 00:03:03;;;;;;;0.52;0.50;;;19.90;99.90;;;;;;7380977;19;20153;-74
2023/09/16 00:05:30;;;;;;;0.60;0.60;;;19.80;99.90;;;;;;7387474;19;20636;-74
2023/09/16 00:07:55;;;;;;;0.57;0.57;;;19.70;99.90;;;;;;7390816;19;20176;-75
2023/09/16 00:10:21;;;;;;;0.63;0.60;;;19.90;99.90;;;;;;7395112;19;20142;-75
2023/09/16 00:12:47;;;;;;;0.70;0.70;;;20.00;99.90;;;;;;7391321;19;20584;-74
2023/09/16 00:15:13;;;;;;;0.30;0.30;;;19.80;99.90;;;;;;7392117;19;20142;-76
2023/09/16 00:17:40;;;;;;;0.25;0.25;;;19.80;99.90;;;;;;7384133;19;20155;-75
2023/09/16 00:20:11;;;;;;;0.57;0.57;;;19.50;99.90;;;;;;7396030;19;20146;-74
2023/09/16 00:22:37;;;;;;;0.30;0.30;;;19.50;99.90;;;;;;7389159;19;20251;-75
2023/09/16 00:25:04;;;;;;;0.50;0.30;;;19.60;99.90;;;;;;7392969;19;20223;-75
2023/09/16 00:27:30;;;;;;;0.47;0.47;;;19.70;99.90;;;;;;7392794;19;20153;-74
2023/09/16 00:29:56;;;;;;;0.30;0.30;;;19.70;99.90;;;;;;7394285;19;20440;-75
2023/09/16 00:32:22;;;;;;;0.38;0.38;;;19.70;99.90;;;;;;7391196;19;20157;-75
2023/09/16 00:34:49;;;;;;;0.25;0.25;;;19.70;99.90;;;;;;7394060;19;20198;-74
2023/09/16 00:37:14;;;;;;;0.38;0.38;;;19.80;99.90;;;;;;7393528;19;20138;-75
2023/09/16 00:39:41;;;;;;;0.52;0.52;;;19.90;99.90;;;;;;7391713;19;20586;-75
2023/09/16 00:42:06;;;;;;;0.55;0.30;;;19.90;99.90;;;;;;7389718;19;20610;-74
2023/09/16 00:44:32;;;;;;;0.28;0.28;;;19.90;99.90;;;;;;7390935;19;20162;-75
2023/09/16 00:46:58;;;;;;;0.82;0.70;;;19.70;99.90;;;;;;7392305;19;20215;-74
2023/09/16 00:49:26;;;;;;;0.45;0.45;;;19.70;99.90;;;;;;7392314;19;20131;-76
2023/09/16 00:51:52;;;;;;;0.50;0.43;;;19.70;99.90;;;;;;7395288;19;20571;-75
2023/09/16 00:54:18;;;;;;;0.50;0.40;;;19.80;99.90;;;;;;7389416;19;20156;-74
2023/09/16 00:56:44;;;;;;;0.50;0.50;;;19.70;99.90;;;;;;7391798;19;20134;-75
2023/09/16 00:59:12;;;;;;;0.70;0.63;;;19.80;99.90;;;;;;7390549;19;20169;-74
2023/09/16 01:01:38;;;;;;;0.40;0.40;;;19.60;99.90;;;;;;7391177;19;20156;-74
2023/09/16 01:04:05;;;;;;;0.40;0.40;;;19.30;99.90;;;;;;7392090;19;20187;-75
2023/09/16 01:06:31;;;;;;;0.45;0.45;;;19.10;99.90;;;;;;7391979;19;20162;-75
2023/09/16 01:08:58;;;;;;;0.35;0.35;;;19.10;99.90;;;;;;7390647;19;20143;-74
2023/09/16 01:11:24;;;;;;;0.35;0.35;;;18.90;99.90;;;;;;7390478;19;20170;-75
2023/09/16 01:13:50;;;;;;;0.40;0.40;;;18.90;99.90;;;;;;7392338;19;20142;-75
2023/09/16 01:16:38;;;;;;;0.50;0.50;;;19.00;99.90;;;;;;7390073;19;20608;-75
2023/09/16 01:19:19;;;;;;;0.35;0.35;;;19.00;99.90;;;;;;7391102;19;20591;-74
2023/09/16 01:21:47;;;;;;;0.32;0.32;;;19.00;99.90;;;;;;7392642;19;20205;-74
2023/09/16 01:24:15;;;;;;;0.55;0.50;;;19.30;99.90;;;;;;7389987;19;20139;-74
2023/09/16 01:26:41;;;;;;;0.40;0.40;;;19.50;99.90;;;;;;7390771;19;20648;-75
2023/09/16 01:29:07;;;;;;;0.88;0.88;;;19.60;99.90;;;;;;7387960;19;20159;-74
2023/09/16 01:31:33;;;;;;;0.68;0.68;;;19.50;99.90;;;;;;7391286;19;20131;-75
2023/09/16 01:34:02;;;;;;;0.40;0.40;;;19.20;99.90;;;;;;7390269;19;20134;-75
2023/09/16 01:36:30;;;;;;;0.60;0.60;;;19.10;99.90;;;;;;7390137;19;20158;-74
2023/09/16 01:39:03;;;;;;;0.47;0.47;;;19.20;99.90;;;;;;7390276;19;20210;-74
2023/09/16 01:41:30;;;;;;;0.57;0.40;;;19.30;99.90;;;;;;7388741;19;20145;-73
2023/09/16 01:43:57;;;;;;;0.52;0.50;;;19.00;99.90;;;;;;7391051;19;20494;-74
2023/09/16 01:46:23;;;;;;;0.30;0.30;;;18.90;99.90;;;;;;7390457;19;20688;-74
2023/09/16 01:48:49;;;;;;;0.60;0.60;;;18.90;99.90;;;;;;7381911;19;20156;-75
2023/09/16 01:51:14;;;;;;;0.68;0.68;;;18.90;99.90;;;;;;7392547;19;20131;-74
2023/09/16 01:53:40;;;;;;;1.30;1.00;;;19.00;99.90;;;;;;7391477;19;20131;-74
2023/09/16 01:56:06;;;;;;;0.38;0.38;;;18.90;99.90;;;;;;7390378;19;20130;-74
2023/09/16 01:58:32;;;;;;;0.35;0.35;;;19.20;99.90;;;;;;7390985;19;20205;-75
2023/09/16 02:00:58;;;;;;;0.60;0.47;;;19.40;99.90;;;;;;7387857;19;20139;-74
2023/09/16 02:03:23;;;;;;;1.10;0.73;;;19.60;99.90;;;;;;7384975;19;20564;-74
2023/09/16 02:05:49;;;;;;;0.63;0.63;;;19.70;99.90;;;;;;7387199;19;20157;-75
2023/09/16 02:08:15;;;;;;;0.40;0.40;;;19.70;99.90;;;;;;7387699;19;20620;-74
2023/09/16 02:10:41;;;;;;;0.50;0.50;;;19.20;99.90;;;;;;7392814;19;20139;-74
2023/09/16 02:13:07;;;;;;;0.40;0.40;;;19.20;99.90;;;;;;7386769;19;20138;-74
2023/09/16 02:15:34;;;;;;;0.57;0.57;;;19.30;99.90;;;;;;7389366;19;20611;-74
2023/09/16 02:18:00;;;;;;;0.40;0.40;;;19.30;99.90;;;;;;7390207;19;20134;-75
2023/09/16 02:20:26;;;;;;;0.60;0.60;;;19.00;99.90;;;;;;7388966;19;20158;-74
2023/09/16 02:22:52;;;;;;;0.28;0.25;;;19.20;99.90;;;;;;7386395;19;20166;-74
2023/09/16 02:25:17;;;;;;;0.55;0.55;;;19.30;99.90;;;;;;7390554;19;20141;-74
2023/09/16 02:27:43;;;;;;;0.70;0.35;;;19.30;99.90;;;;;;7385149;19;20138;-74
2023/09/16 02:30:09;;;;;;;0.82;0.60;;;19.00;99.90;;;;;;7387778;19;20147;-74
2023/09/16 02:32:35;;;;;;;0.50;0.50;;;19.00;99.90;;;;;;7388908;19;20227;-74
2023/09/16 02:35:01;;;;;;;0.50;0.50;;;18.70;99.90;;;;;;7390527;19;20134;-74
2023/09/16 02:37:26;;;;;;;0.40;0.40;;;18.80;99.90;;;;;;7388432;19;20131;-74
2023/09/16 02:39:52;;;;;;;0.45;0.43;;;18.80;99.90;;;;;;7392351;19;20198;-74
2023/09/16 02:42:18;;;;;;;0.50;0.50;;;18.60;99.90;;;;;;7385932;19;20134;-74
2023/09/16 02:44:43;;;;;;;0.35;0.35;;;18.40;99.90;;;;;;7389459;19;20144;-76
2023/09/16 02:47:09;;;;;;;0.40;0.40;;;18.20;99.90;;;;;;7387888;19;20138;-75
2023/09/16 02:49:35;;;;;;;0.50;0.50;;;18.10;99.90;;;;;;7388118;19;20607;-73
2023/09/16 02:52:01;;;;;;;0.88;0.60;;;18.10;99.90;;;;;;7388869;19;20150;-74
2023/09/16 02:54:27;;;;;;;0.52;0.52;;;18.20;99.90;;;;;;7386844;19;20138;-74
2023/09/16 02:56:53;;;;;;;0.85;0.52;;;18.00;99.90;;;;;;7390077;19;20146;-74
2023/09/16 02:59:18;;;;;;;0.30;0.30;;;18.10;99.90;;;;;;7388547;19;20147;-75
2023/09/16 03:01:44;;;;;;;0.45;0.45;;;18.20;99.90;;;;;;7387669;19;20139;-74
2023/09/16 03:04:10;;;;;;;0.43;0.43;;;18.30;99.90;;;;;;7384752;19;20272;-75
2023/09/16 03:06:35;;;;;;;0.60;0.60;;;18.50;99.90;;;;;;7390737;19;20130;-75
2023/09/16 03:09:01;;;;;;;0.45;0.40;;;18.60;99.90;;;;;;7386292;19;20154;-75
2023/09/16 03:11:27;;;;;;;0.68;0.65;;;18.50;99.90;;;;;;7386583;19;20501;-75
2023/09/16 03:13:54;;;;;;;0.90;0.57;;;18.40;99.90;;;;;;7388039;19;20134;-74
2023/09/16 03:16:23;;;;;;;0.32;0.32;;;18.20;99.90;;;;;;7382645;19;20166;-74
2023/09/16 03:18:50;;;;;;;0.35;0.35;;;18.50;99.90;;;;;;7388851;19;20579;-74
2023/09/16 03:21:18;;;;;;;0.90;0.82;;;19.00;99.90;;;;;;7386615;19;20452;-74
2023/09/16 03:23:45;;;;;;;0.40;0.40;;;19.10;99.90;;;;;;7389298;19;20126;-75
2023/09/16 03:26:11;;;;;;;0.20;0.20;;;19.20;99.90;;;;;;7387001;19;20146;-75
2023/09/16 03:28:41;;;;;;;0.40;0.32;;;19.30;99.90;;;;;;7389359;19;20202;-75
2023/09/16 03:31:07;;;;;;;0.22;0.22;;;19.30;99.90;;;;;;7385444;19;20130;-74
2023/09/16 03:33:33;;;;;;;0.98;0.63;;;19.30;99.90;;;;;;7388504;19;20143;-74
2023/09/16 03:35:59;;;;;;;0.55;0.55;;;19.30;99.90;;;;;;7390405;19;20206;-75
2023/09/16 03:38:30;;;;;;;0.50;0.50;;;19.20;99.90;;;;;;7387585;19;20141;-74
2023/09/16 03:40:57;;;;;;;0.30;0.30;;;18.70;99.90;;;;;;7394964;19;20198;-75
2023/09/16 03:43:23;;;;;;;0.38;0.38;;;18.60;99.90;;;;;;7393026;19;20479;-74
2023/09/16 03:45:49;;;;;;;0.40;0.40;;;18.70;99.90;;;;;;7392496;19;20150;-75
2023/09/16 03:48:15;;;;;;;0.45;0.40;;;18.90;99.90;;;;;;7392232;19;20135;-75
2023/09/16 03:50:41;;;;;;;0.60;0.60;;;19.00;99.90;;;;;;7394784;19;20134;-75
2023/09/16 03:53:07;;;;;;;0.20;0.20;;;19.00;99.90;;;;;;7392816;19;20229;-75
2023/09/16 03:55:33;;;;;;;0.98;0.60;;;19.00;99.90;;;;;;7396335;19;20206;-75
2023/09/16 03:58:00;;;;;;;0.60;0.40;;;19.00;99.90;;;;;;7396173;19;20226;-75
2023/09/16 04:00:26;;;;;;;0.60;0.60;;;19.00;99.90;;;;;;7393231;19;20135;-75
2023/09/16 04:02:52;;;;;;;0.38;0.38;;;19.00;99.90;;;;;;7390822;19;20131;-74
2023/09/16 04:05:18;;;;;;;0.25;0.25;;;19.00;99.90;;;;;;7392617;19;20167;-75
2023/09/16 04:07:43;;;;;;;0.38;0.38;;;18.90;99.90;;;;;;7392412;19;20123;-74
2023/09/16 04:10:09;;;;;;;0.30;0.30;;;18.90;99.90;;;;;;7392547;19;20467;-75
2023/09/16 04:12:36;;;;;;;0.80;0.80;;;18.80;99.90;;;;;;7392134;19;20241;-75
2023/09/16 04:15:02;;;;;;;0.25;0.25;;;18.60;99.90;;;;;;7394674;19;20154;-76
2023/09/16 04:17:29;;;;;;;0.63;0.50;;;18.80;99.90;;;;;;7392007;19;20162;-74
2023/09/16 04:19:54;;;;;;;0.77;0.60;;;18.70;99.90;;;;;;7392379;19;20143;-74
2023/09/16 04:22:20;;;;;;;0.40;0.40;;;18.80;99.90;;;;;;7389980;19;20152;-74
2023/09/16 04:24:46;;;;;;;0.38;0.38;;;18.80;99.90;;;;;;7394555;19;20135;-74
2023/09/16 04:27:12;;;;;;;0.60;0.60;;;18.50;99.90;;;;;;7394392;19;20168;-75
2023/09/16 04:29:38;;;;;;;0.40;0.40;;;18.50;99.90;;;;;;7391653;19;20139;-74
2023/09/16 04:32:04;;;;;;;0.50;0.50;;;18.10;99.90;;;;;;7393819;19;20138;-75
2023/09/16 04:34:32;;;;;;;0.30;0.30;;;17.80;99.90;;;;;;7395047;19;20146;-75
2023/09/16 04:36:59;;;;;;;0.52;0.52;;;17.60;99.90;;;;;;7391656;19;20473;-75
2023/09/16 04:39:26;;;;;;;0.50;0.50;;;17.70;99.90;;;;;;7391477;19;20135;-75
2023/09/16 04:41:53;;;;;;;0.13;0.13;;;17.80;99.90;;;;;;7389947;19;20214;-75
2023/09/16 04:44:23;;;;;;;0.40;0.32;;;17.50;99.90;;;;;;7390638;19;20146;-75
2023/09/16 04:46:53;;;;;;;0.82;0.82;;;17.60;99.90;;;;;;7393241;19;20567;-75
2023/09/16 04:49:22;;;;;;;0.50;0.50;;;17.70;99.90;;;;;;7392888;19;20138;-75
2023/09/16 04:51:48;;;;;;;0.40;0.40;;;17.90;99.90;;;;;;7391694;19;20156;-75
2023/09/16 04:54:14;;;;;;;0.47;0.40;;;17.50;99.90;;;;;;7391408;19;20139;-75
2023/09/16 04:56:40;;;;;;;0.70;0.70;;;17.50;99.90;;;;;;7393751;19;20147;-75
2023/09/16 04:59:06;;;;;;;0.70;0.45;;;17.50;99.90;;;;;;7392791;19;20135;-74
2023/09/16 05:01:33;;;;;;;0.65;0.65;;;17.60;99.90;;;;;;7391627;19;20138;-75
2023/09/16 05:03:59;;;;;;;0.60;0.50;;;17.60;99.90;;;;;;7390535;19;20175;-74
2023/09/16 05:06:25;;;;;;;0.40;0.40;;;17.50;99.90;;;;;;7393128;19;20158;-74
2023/09/16 05:08:54;;;;;;;0.40;0.40;;;17.80;99.90;;;;;;7393236;19;20176;-74
2023/09/16 05:11:20;;;;;;;0.30;0.30;;;18.00;99.90;;;;;;7392967;19;20142;-74
2023/09/16 05:13:45;;;;;;;0.40;0.38;;;18.20;99.90;;;;;;7391365;19;20155;-74
2023/09/16 05:16:12;;;;;;;0.50;0.40;;;18.20;99.90;;;;;;7391582;19;20145;-76
2023/09/16 05:18:37;;;;;;;0.60;0.60;;;18.10;99.90;;;;;;7392037;19;20154;-76
2023/09/16 05:21:03;;;;;;;0.47;0.47;;;17.90;99.90;;;;;;7393867;19;20509;-75
2023/09/16 05:23:34;;;;;;;0.30;0.30;;;17.80;99.90;;;;;;7388929;19;20222;-76
2023/09/16 05:26:00;;;;;;;0.25;0.25;;;17.80;99.90;;;;;;7388717;19;20142;-75
2023/09/16 05:28:27;;;;;;;0.32;0.32;;;17.80;99.90;;;;;;7392915;19;20453;-75
2023/09/16 05:31:00;;;;;;;0.28;0.28;;;18.10;99.90;;;;;;7392829;19;20613;-76
2023/09/16 05:33:26;;;;;;;0.40;0.40;;;18.30;99.90;;;;;;7391459;19;20139;-76
2023/09/16 05:35:52;;;;;;;0.50;0.50;;;18.50;99.90;;;;;;7389485;19;20146;-75
2023/09/16 05:38:17;;;;;;;0.60;0.60;;;18.60;99.90;;;;;;7388171;19;20127;-75
2023/09/16 05:40:43;;;;;;;0.25;0.25;;;18.70;99.90;;;;;;7388816;19;20504;-76
2023/09/16 05:43:11;;;;;;;0.40;0.40;;;18.80;99.90;;;;;;7388882;19;20860;-75
2023/09/16 05:45:37;;;;;;;0.57;0.57;;;18.90;99.90;;;;;;7391710;19;20154;-77
2023/09/16 05:48:04;;;;;;;0.57;0.57;;;19.00;99.90;;;;;;7390933;19;20592;-75
2023/09/16 05:50:30;;;;;;;0.60;0.60;;;19.00;99.90;;;;;;7392480;19;20140;-75
2023/09/16 05:52:56;;;;;;;0.50;0.50;;;18.80;99.90;;;;;;7388085;19;20138;-77
2023/09/16 05:55:22;;;;;;;0.50;0.50;;;18.70;99.90;;;;;;7391599;19;20159;-77
2023/09/16 05:57:49;;;;;;;0.40;0.40;;;18.70;99.90;;;;;;7392249;19;20603;-76
2023/09/16 06:00:15;;;;;;;0.93;0.73;;;18.60;99.90;;;;;;7392610;19;20150;-76
2023/09/16 06:02:40;;;;;;;1.13;1.02;;;18.50;99.90;;;;;;7387628;19;20207;-76
2023/09/16 06:05:07;;;;;;;0.60;0.60;;;18.50;99.90;;;;;;7391599;19;20147;-76
2023/09/16 06:07:35;;;;;;;0.63;0.63;;;18.50;99.90;;;;;;7388962;19;20165;-75
2023/09/16 06:10:01;;;;;;;0.40;0.40;;;18.60;99.90;;;;;;7391615;19;20178;-76
2023/09/16 06:12:27;;;;;;;0.40;0.40;;;18.50;99.90;;;;;;7392297;19;20587;-75
2023/09/16 06:15:01;;;;;;;0.30;0.30;;;18.60;99.90;;;;;;7392202;19;20162;-76
2023/09/16 06:17:27;;;;;;;0.40;0.40;;;18.70;99.90;;;;;;7389728;19;20496;-76
2023/09/16 06:19:55;;;;;;;0.40;0.40;;;18.80;99.90;;;;;;7389173;19;20154;-77
2023/09/16 06:22:24;;;;;;;0.30;0.30;;;18.80;99.90;;;;;;7390167;19;20487;-77
2023/09/16 06:24:51;;;;;;;0.30;0.30;;;18.90;99.90;;;;;;7386773;19;20159;-76
2023/09/16 06:27:17;;;;;;;0.15;0.15;;;19.00;99.90;;;;;;7387781;19;20544;-75
2023/09/16 06:29:44;;;;;;;0.57;0.50;;;19.00;99.90;;;;;;7391239;19;20142;-75
2023/09/16 06:32:10;;;;;;;0.32;0.32;;;19.00;99.90;;;;;;7389756;19;20587;-74
2023/09/16 06:34:36;;;;;;;0.93;0.82;;;18.90;99.90;;;;;;7389654;19;20230;-75
2023/09/16 06:37:03;;;;;;;0.20;0.20;;;19.00;99.90;;;;;;7389245;19;20147;-75
2023/09/16 06:39:28;;;;;;;0.47;0.47;;;19.00;99.90;;;;;;7390199;19;20291;-75
2023/09/16 06:41:54;;;;;;;0.28;0.28;;;19.10;99.90;;;;;;7389906;19;20584;-74
2023/09/16 06:44:20;;;;;;;0.25;0.25;;;19.10;99.90;;;;;;7389864;19;20146;-77
2023/09/16 06:46:46;;;;;;;0.17;0.17;;;19.10;99.90;;;;;;7389538;19;20135;-74
2023/09/16 06:49:12;;;;;;;0.40;0.38;;;19.20;99.90;;;;;;7389818;19;20147;-75
2023/09/16 06:51:38;;;;;;;0.60;0.60;;;19.20;99.90;;;;;;7390950;19;20138;-74
2023/09/16 06:54:03;;;;;;;0.73;0.68;;;19.30;99.90;;;;;;7388385;19;20475;-75
2023/09/16 06:56:29;;;;;;;0.68;0.68;;;19.30;99.90;;;;;;7389474;19;20239;-76
2023/09/16 06:58:56;;;;;;;0.90;0.80;;;19.30;99.90;;;;;;7386917;19;20385;-78
2023/09/16 07:01:25;;;;;;;0.45;0.30;;;19.40;99.90;;;;;;7388966;19;20340;-82
2023/09/16 07:03:51;;;;;;;0.77;0.77;;;19.30;99.90;;;;;;7389832;19;20138;-81
2023/09/16 07:06:16;;;;;;;0.25;0.25;;;19.30;99.90;;;;;;7387173;19;20181;-80
2023/09/16 07:08:42;;;;;;;0.65;0.45;;;19.40;99.90;;;;;;7388885;19;20186;-82
2023/09/16 07:11:11;;;;;;;0.30;0.30;;;19.40;99.90;;;;;;7388883;19;20135;-82
2023/09/16 07:13:38;;;;;;;0.40;0.40;;;19.50;99.90;;;;;;7389635;19;20193;-81
2023/09/16 07:16:04;;;;;;;0.40;0.40;;;19.60;99.90;;;;;;7388866;19;20174;-81
2023/09/16 07:18:31;;;;;;;0.43;0.40;;;19.60;99.90;;;;;;7389523;19;20154;-83
2023/09/16 07:20:56;;;;;;;0.30;0.30;;;19.60;99.90;;;;;;7391653;19;20880;-84
2023/09/16 07:23:22;;;;;;;0.17;0.17;;;19.60;99.90;;;;;;7385102;19;20150;-79
2023/09/16 07:25:55;;;;;;;0.63;0.45;;;19.70;99.90;;;;;;7386570;19;20270;-82
2023/09/16 07:28:21;;;;;;;0.40;0.40;;;19.80;99.90;;;;;;7387894;19;20139;-82
2023/09/16 07:30:47;;;;;;;0.40;0.40;;;19.80;99.90;;;;;;7389609;19;20155;-81
2023/09/16 07:33:14;;;;;;;0.80;0.80;;;19.80;99.90;;;;;;7390282;19;20555;-82
2023/09/16 07:35:40;;;;;;;0.20;0.20;;;19.80;99.90;;;;;;7387696;19;20150;-83
2023/09/16 07:38:06;;;;;;;0.30;0.30;;;19.90;99.90;;;;;;7388851;19;20143;-83
2023/09/16 07:40:32;;;;;;;0.30;0.30;;;19.90;99.90;;;;;;7389067;19;20593;-80
2023/09/16 07:43:01;;;;;;;0.20;0.20;;;20.00;99.90;;;;;;7385483;19;20197;-80
2023/09/16 07:45:26;;;;;;;0.40;0.40;;;20.00;99.90;;;;;;7387964;19;20150;-80
2023/09/16 07:47:53;;;;;;;0.25;0.25;;;20.10;99.90;;;;;;7387839;19;20767;-80
2023/09/16 07:50:19;;;;;;;0.50;0.50;;;20.20;99.90;;;;;;7384711;19;20150;-77
2023/09/16 07:52:44;;;;;;;0.50;0.40;;;20.20;99.90;;;;;;7387322;19;20630;-79
2023/09/16 07:55:11;;;;;;;0.40;0.40;;;20.30;99.90;;;;;;7384965;19;20141;-80
2023/09/16 07:57:36;;;;;;;0.20;0.20;;;20.40;99.90;;;;;;7386902;19;20201;-81
2023/09/16 08:00:07;;;;;;;0.30;0.30;;;20.50;99.90;;;;;;7386449;19;20167;-79
2023/09/16 08:02:33;;;;;;;0.35;0.35;;;20.50;99.90;;;;;;7388507;19;20159;-81
2023/09/16 08:04:59;;;;;;;0.20;0.20;;;20.60;99.90;;;;;;7387168;19;20147;-81
2023/09/16 08:07:25;;;;;;;0.60;0.55;;;20.80;99.90;;;;;;7386934;19;20150;-80
2023/09/16 08:09:51;;;;;;;0.35;0.35;;;20.90;99.90;;;;;;7385893;19;20139;-78
2023/09/16 08:12:17;;;;;;;0.30;0.30;;;21.00;99.90;;;;;;7386698;19;20127;-80
2023/09/16 08:14:43;;;;;;;0.52;0.52;;;21.10;99.90;;;;;;7384875;19;20147;-79
2023/09/16 08:17:09;;;;;;;0.40;0.30;;;21.30;99.90;;;;;;7387293;19;20157;-76
2023/09/16 08:19:35;;;;;;;0.22;0.22;;;21.50;99.90;;;;;;7385358;19;20154;-78
2023/09/16 08:22:00;;;;;;;0.20;0.20;;;21.80;99.90;;;;;;7386699;19;20127;-79
2023/09/16 08:24:27;;;;;;;0.30;0.30;;;21.90;99.90;;;;;;7385531;19;20231;-78
2023/09/16 08:26:53;;;;;;;0.45;0.45;;;22.20;99.90;;;;;;7391855;19;20206;-82
2023/09/16 08:29:18;;;;;;;0.65;0.38;;;22.60;99.90;;;;;;7396435;19;20131;-82
2023/09/16 08:31:44;;;;;;;0.30;0.30;;;22.80;99.90;;;;;;7395997;19;20130;-82
2023/09/16 08:34:10;;;;;;;0.73;0.73;;;22.90;99.90;;;;;;7391664;19;20263;-85
2023/09/16 08:36:35;;;;;;;0.30;0.30;;;23.10;99.90;;;;;;7393063;19;20560;-86
2023/09/16 08:39:01;;;;;;;0.32;0.32;;;23.10;99.90;;;;;;7395416;19;20154;-86
2023/09/16 08:41:39;;;;;;;0.50;0.50;;;23.20;99.90;;;;;;7391884;19;20138;-87
2023/09/16 08:44:07;;;;;;;0.30;0.30;;;23.20;99.90;;;;;;7396138;19;20142;-83
2023/09/16 08:46:39;;;;;;;0.30;0.30;;;23.30;99.90;;;;;;7394417;19;20143;-85
2023/09/16 08:49:08;;;;;;;0.80;0.80;;;23.30;99.90;;;;;;7395286;19;20149;-84
2023/09/16 08:51:41;;;;;;;0.52;0.40;;;23.20;99.90;;;;;;7392291;19;20147;-86
2023/09/16 08:54:09;;;;;;;0.20;0.20;;;23.10;99.90;;;;;;7392370;19;20217;-85
2023/09/16 08:56:36;;;;;;;0.32;0.32;;;23.00;99.90;;;;;;7398051;19;20135;-83
2023/09/16 08:59:02;;;;;;;0.40;0.40;;;23.10;99.90;;;;;;7389764;19;20158;-80
2023/09/16 09:01:28;;;;;;;0.40;0.40;;;23.10;99.90;;;;;;7391319;19;20484;-80
2023/09/16 09:03:54;;;;;;;0.30;0.30;;;23.30;99.90;;;;;;7391365;19;20135;-80
2023/09/16 09:06:22;;;;;;;0.60;0.60;;;23.50;99.90;;;;;;7388448;19;20238;-79
2023/09/16 09:08:48;;;;;;;0.40;0.40;;;23.60;99.90;;;;;;7390898;19;20188;-80
2023/09/16 09:11:15;;;;;;;0.35;0.35;;;23.70;99.90;;;;;;7392208;19;20143;-78
2023/09/16 09:13:46;;;;;;;0.63;0.50;;;23.70;99.90;;;;;;7391035;19;20134;-78
2023/09/16 09:16:16;;;;;;;0.32;0.32;;;23.60;99.90;;;;;;7391674;19;20157;-79
2023/09/16 09:18:44;;;;;;;0.45;0.45;;;23.50;99.90;;;;;;7392509;19;20142;-79
2023/09/16 09:21:10;;;;;;;0.65;0.57;;;23.40;99.90;;;;;;7389251;19;20142;-78
2023/09/16 09:23:36;;;;;;;0.65;0.50;;;23.30;99.90;;;;;;7386707;19;20212;-79
2023/09/16 09:26:02;;;;;;;0.30;0.30;;;23.30;99.90;;;;;;7389918;19;20130;-79
2023/09/16 09:28:28;;;;;;;0.30;0.30;;;23.40;99.90;;;;;;7388711;19;20165;-79
2023/09/16 09:30:55;;;;;;;0.40;0.40;;;23.30;99.90;;;;;;7387914;19;20134;-78
2023/09/16 09:33:21;;;;;;;0.30;0.30;;;23.40;99.90;;;;;;7388845;19;20599;-79
2023/09/16 09:35:47;;;;;;;0.40;0.40;;;23.50;99.90;;;;;;7389271;19;20147;-81
2023/09/16 09:38:15;;;;;;;0.20;0.20;;;23.50;99.90;;;;;;7388311;19;20590;-76
2023/09/16 09:41:00;;;;;;;0.57;0.57;;;23.60;99.90;;;;;;7390136;19;20564;-75
2023/09/16 09:43:29;;;;;;;0.25;0.25;;;23.80;99.90;;;;;;7386901;19;20191;-77
2023/09/16 09:45:55;;;;;;;0.30;0.30;;;23.90;99.90;;;;;;7390788;19;20162;-76
2023/09/16 09:48:21;;;;;;;0.25;0.25;;;23.90;99.90;;;;;;7388513;19;20258;-77
2023/09/16 09:50:47;;;;;;;0.28;0.28;;;24.00;99.90;;;;;;7389092;19;20131;-76
2023/09/16 09:53:13;;;;;;;0.30;0.30;;;24.10;99.90;;;;;;7388532;19;20213;-77
2023/09/16 09:55:39;;;;;;;0.50;0.50;;;24.20;99.90;;;;;;7389100;19;20538;-75
2023/09/16 09:58:05;;;;;;;0.32;0.32;;;24.30;99.90;;;;;;7390589;19;20263;-75
2023/09/16 10:00:31;;;;;;;0.15;0.15;;;24.40;99.90;;;;;;7387881;19;20172;-76
2023/09/16 10:03:00;;;;;;;0.30;0.20;;;24.40;99.90;;;;;;7385848;19;20154;-74
2023/09/16 10:05:26;;;;;;;0.52;0.52;;;24.60;99.90;;;;;;7388648;19;20174;-78
2023/09/16 10:07:53;;;;;;;0.20;0.20;;;24.60;99.90;;;;;;7390426;19;20488;-81
2023/09/16 10:10:22;;;;;;;0.40;0.40;;;24.70;99.90;;;;;;7390690;19;20159;-82
2023/09/16 10:12:54;;;;;;;0.30;0.30;;;24.80;99.90;;;;;;7392054;19;20719;-83
2023/09/16 10:15:36;;;;;;;0.32;0.32;;;24.60;99.90;;;;;;7391669;19;20142;-81
2023/09/16 10:18:06;;;;;;;0.30;0.30;;;24.60;99.90;;;;;;7391409;19;20168;-81
2023/09/16 10:20:34;;;;;;;0.38;0.35;;;24.60;99.90;;;;;;7392235;19;20261;-81
2023/09/16 10:23:00;;;;;;;0.40;0.40;;;24.60;99.90;;;;;;7390162;19;20243;-82
2023/09/16 10:25:31;;;;;;;0.28;0.28;;;24.60;99.90;;;;;;7394101;19;20138;-82
2023/09/16 10:28:03;;;;;;;0.52;0.52;;;24.60;99.90;;;;;;7391900;19;20151;-81
2023/09/16 10:30:30;;;;;;;0.30;0.30;;;24.70;99.90;;;;;;7393577;19;20218;-83
2023/09/16 10:33:00;;;;;;;0.45;0.45;;;24.70;99.90;;;;;;7393066;19;20198;-83
2023/09/16 10:35:33;;;;;;;0.25;0.25;;;24.80;99.90;;;;;;7394189;19;20141;-82
2023/09/16 10:38:05;;;;;;;0.40;0.22;;;24.80;99.90;;;;;;7393415;19;20531;-78
2023/09/16 10:40:32;;;;;;;0.40;0.40;;;24.90;99.90;;;;;;7393417;19;20138;-80
2023/09/16 10:43:00;;;;;;;0.30;0.30;;;25.00;99.90;;;;;;7386489;19;20146;-82
2023/09/16 10:45:26;;;;;;;0.40;0.38;;;25.10;99.90;;;;;;7390307;19;20705;-74
2023/09/16 10:47:53;;;;;;;0.30;0.30;;;25.20;99.90;;;;;;7392123;19;20218;-79
2023/09/16 10:50:29;;;;;;;0.30;0.30;;;25.20;99.90;;;;;;7394781;19;20143;-73
2023/09/16 10:53:03;;;;;;;0.30;0.30;;;25.20;99.90;;;;;;7387758;19;20134;-74
2023/09/16 10:55:31;;;;;;;0.10;0.10;;;25.20;99.90;;;;;;7390905;19;20201;-74
2023/09/16 10:58:16;;;;;;;0.20;0.20;;;25.30;99.90;;;;;;7387839;19;20150;-72
2023/09/16 11:00:50;;;;;;;0.20;0.20;;;25.40;99.90;;;;;;7390630;19;20163;-72
2023/09/16 11:03:17;;;;;;;0.30;0.30;;;25.50;99.90;;;;;;7387186;19;20162;-72
2023/09/16 11:05:43;;;;;;;0.20;0.20;;;25.50;99.90;;;;;;7385621;19;20205;-73
2023/09/16 11:08:09;;;;;;;0.30;0.30;;;25.60;99.90;;;;;;7391654;19;20554;-71
2023/09/16 11:10:36;;;;;;;0.38;0.38;;;25.80;99.90;;;;;;7388785;19;20134;-73
2023/09/16 11:13:03;;;;;;;0.20;0.20;;;25.80;99.90;;;;;;7389994;19;20522;-72
2023/09/16 11:15:33;;;;;;;0.17;0.17;;;25.80;99.90;;;;;;7386537;19;20501;-73
2023/09/16 11:18:08;;;;;;;0.57;0.40;;;25.80;99.90;;;;;;7388261;19;20144;-75
2023/09/16 11:20:37;;;;;;;0.28;0.28;;;25.80;99.90;;;;;;7387448;19;20487;-73
2023/09/16 11:23:05;;;;;;;0.30;0.25;;;25.80;99.90;;;;;;7384609;19;20139;-73
2023/09/16 11:25:41;;;;;;;0.15;0.15;;;25.80;99.90;;;;;;7388695;19;20214;-74
2023/09/16 11:28:16;;;;;;;0.30;0.30;;;25.80;99.90;;;;;;7387784;19;20130;-74
2023/09/16 11:30:59;;;;;;;0.17;0.17;;;25.80;99.90;;;;;;7386697;19;20146;-74
2023/09/16 11:33:34;;;;;;;0.55;0.50;;;25.90;99.90;;;;;;7387314;19;20146;-74
2023/09/16 11:36:11;;;;;;;0.30;0.30;;;25.90;99.90;;;;;;7390195;19;20536;-71
2023/09/16 11:38:39;;;;;;;0.35;0.35;;;25.90;99.90;;;;;;7389009;19;20130;-73
2023/09/16 11:41:10;;;;;;;0.73;0.35;;;26.00;99.90;;;;;;7388352;19;20161;-72
2023/09/16 11:43:37;;;;;;;0.20;0.20;;;26.10;99.90;;;;;;7384778;19;20135;-74
2023/09/16 11:46:03;;;;;;;1.10;0.30;;;26.10;99.90;;;;;;7389867;19;20179;-74
2023/09/16 11:48:56;;;;;;;0.20;0.20;;;26.30;99.90;;;;;;7390170;19;20127;-72
2023/09/16 11:51:23;;;;;;;0.20;0.20;;;26.50;99.90;;;;;;7388247;19;20150;-72
2023/09/16 11:53:51;;;;;;;0.20;0.20;;;26.50;99.90;;;;;;7390431;19;20583;-73
2023/09/16 11:56:19;;;;;;;0.15;0.15;;;26.50;99.90;;;;;;7385261;19;20154;-72
2023/09/16 11:58:46;;;;;;;0.20;0.20;;;26.50;99.90;;;;;;7388101;19;20152;-73
2023/09/16 12:01:18;;;;;;;0.20;0.20;;;26.40;99.90;;;;;;7388770;19;20206;-73
2023/09/16 12:03:44;;;;;;;0.30;0.30;;;26.50;99.90;;;;;;7393405;19;20206;-72
2023/09/16 12:06:14;;;;;;;0.30;0.30;;;26.50;99.90;;;;;;7392340;19;20166;-73
2023/09/16 12:08:42;;;;;;;0.20;0.20;;;26.50;99.90;;;;;;7392376;19;20141;-73
2023/09/16 12:11:07;;;;;;;0.25;0.25;;;26.50;99.90;;;;;;7392213;19;20491;-73
2023/09/16 12:13:34;;;;;;;0.20;0.20;;;26.40;99.90;;;;;;7390262;19;20154;-72
2023/09/16 12:15:59;;;;;;;0.22;0.22;;;26.30;99.90;;;;;;7391798;19;20480;-73
2023/09/16 12:18:26;;;;;;;0.20;0.20;;;26.50;99.90;;;;;;7393409;19;20142;-73
2023/09/16 12:20:52;;;;;;;0.40;0.35;;;26.60;99.90;;;;;;7394465;19;20155;-73
2023/09/16 12:23:18;;;;;;;0.10;0.10;;;26.90;99.90;;;;;;7391458;19;20158;-73
2023/09/16 12:25:45;;;;;;;0.22;0.13;;;27.00;99.90;;;;;;7391389;19;20142;-72
2023/09/16 12:28:19;;;;;;;0.30;0.30;;;27.00;99.90;;;;;;7391482;19;20147;-73
2023/09/16 12:30:48;;;;;;;0.10;0.10;;;27.00;99.90;;;;;;7391946;19;20745;-72
2023/09/16 12:33:14;;;;;;;0.20;0.20;;;27.00;99.90;;;;;;7392837;19;20138;-72
2023/09/16 12:35:42;;;;;;;0.32;0.30;;;27.00;99.90;;;;;;7392828;19;20139;-73
2023/09/16 12:38:07;;;;;;;0.20;0.20;;;27.00;99.90;;;;;;7392778;19;20147;-72
2023/09/16 12:40:34;;;;;;;0.28;0.28;;;27.00;99.90;;;;;;7391871;19;20139;-74
2023/09/16 12:43:02;;;;;;;0.30;0.30;;;27.00;99.90;;;;;;7388463;19;20157;-72
2023/09/16 12:45:28;;;;;;;0.30;0.30;;;27.10;99.90;;;;;;7390323;19;20162;-73
2023/09/16 12:47:55;;;;;;;0.22;0.22;;;27.00;99.90;;;;;;7392960;19;20176;-74